sensor_id;sensor_type;location;lat;lon;timestamp;temperature;humidity
13409;DHT22;6775;49.574;11.170;2023-04-03T00:00:57;4.10;99.90
13409;DHT22;6775;49.574;11.170;2023-04-03T00:03:25;4.10;99.90
13409;DHT22;6775;49.574;11.170;2023-04-03T00:05:53;4.10;99.90
13409;DHT22;6775;49.574;11.170;2023-04-03T00:08:21;4.10;99.90
13409;DHT22;6775;49.574;11.170;2023-04-03T00:10:50;4.20;99.90
13409;DHT22;6775;49.574;11.170;2023-04-03T00:13:18;4.10;99.90
13409;DHT22;6775;49.574;11.170;2023-04-03T00:15:46;4.10;99.90
13409;DHT22;6775;49.574;11.170;2023-04-03T00:18:14;4.20;99.90
13409;DHT22;6775;49.574;11.170;2023-04-03T00:20:42;4.10;99.90
13409;DHT22;6775;49.574;11.170;2023-04-03T00:23:10;4.10;99.90
13409;DHT22;6775;49.574;11.170;2023-04-03T00:25:38;4.10;99.90
13409;DHT22;6775;49.574;11.170;2023-04-03T00:28:08;4.20;99.90
13409;DHT22;6775;49.574;11.170;2023-04-03T00:30:36;4.10;99.90
13409;DHT22;6775;49.574;11.170;2023-04-03T00:33:04;4.10;99.90
13409;DHT22;6775;49.574;11.170;2023-04-03T00:35:34;3.90;99.90
13409;DHT22;6775;49.574;11.170;2023-04-03T00:38:02;3.80;99.90
13409;DHT22;6775;49.574;11.170;2023-04-03T00:40:35;3.70;99.90
13409;DHT22;6775;49.574;11.170;2023-04-03T00:43:12;3.60;99.90
13409;DHT22;6775;49.574;11.170;2023-04-03T00:45:42;3.60;99.90
13409;DHT22;6775;49.574;11.170;2023-04-03T00:48:13;3.60;99.90
13409;DHT22;6775;49.574;11.170;2023-04-03T00:50:43;3.60;99.90
13409;DHT22;6775;49.574;11.170;2023-04-03T00:53:14;3.60;99.90
13409;DHT22;6775;49.574;11.170;2023-04-03T00:55:44;3.60;99.90
13409;DHT22;6775;49.574;11.170;2023-04-03T00:58:16;3.60;99.90
13409;DHT22;6775;49.574;11.170;2023-04-03T01:00:49;3.50;99.90
13409;DHT22;6775;49.574;11.170;2023-04-03T01:03:23;3.50;99.90
13409;DHT22;6775;49.574;11.170;2023-04-03T01:05:51;3.40;99.90
13409;DHT22;6775;49.574;11.170;2023-04-03T01:08:19;3.40;99.90
13409;DHT22;6775;49.574;11.170;2023-04-03T01:10:47;3.30;99.90
13409;DHT22;6775;49.574;11.170;2023-04-03T01:13:25;3.20;99.90
13409;DHT22;6775;49.574;11.170;2023-04-03T01:15:54;3.20;99.90
13409;DHT22;6775;49.574;11.170;2023-04-03T01:18:23;3.10;99.90
13409;DHT22;6775;49.574;11.170;2023-04-03T01:24:23;3.10;99.90
13409;DHT22;6775;49.574;11.170;2023-04-03T01:26:52;3.10;99.90
13409;DHT22;6775;49.574;11.170;2023-04-03T01:29:21;3.10;99.90
13409;DHT22;6775;49.574;11.170;2023-04-03T01:31:52;3.00;99.90
13409;DHT22;6775;49.574;11.170;2023-04-03T01:34:20;3.00;99.90
13409;DHT22;6775;49.574;11.170;2023-04-03T01:36:49;3.00;99.90
13409;DHT22;6775;49.574;11.170;2023-04-03T01:39:17;2.90;99.90
13409;DHT22;6775;49.574;11.170;2023-04-03T01:41:45;2.90;99.90
13409;DHT22;6775;49.574;11.170;2023-04-03T01:44:13;2.90;99.90
13409;DHT22;6775;49.574;11.170;2023-04-03T01:46:41;2.90;99.90
13409;DHT22;6775;49.574;11.170;2023-04-03T01:49:10;2.80;99.90
13409;DHT22;6775;49.574;11.170;2023-04-03T01:51:38;2.80;99.90
13409;DHT22;6775;49.574;11.170;2023-04-03T01:54:06;2.80;99.90
13409;DHT22;6775;49.574;11.170;2023-04-03T01:56:34;2.80;99.90
13409;DHT22;6775;49.574;11.170;2023-04-03T01:59:02;2.70;99.90
13409;DHT22;6775;49.574;11.170;2023-04-03T02:01:29;2.70;99.90
13409;DHT22;6775;49.574;11.170;2023-04-03T02:03:57;2.60;99.90
13409;DHT22;6775;49.574;11.170;2023-04-03T02:06:26;2.70;99.90
13409;DHT22;6775;49.574;11.170;2023-04-03T02:08:54;2.70;99.90
13409;DHT22;6775;49.574;11.170;2023-04-03T02:11:22;2.70;99.90
13409;DHT22;6775;49.574;11.170;2023-04-03T02:13:50;2.80;99.90
13409;DHT22;6775;49.574;11.170;2023-04-03T02:16:18;2.80;99.90
13409;DHT22;6775;49.574;11.170;2023-04-03T02:18:45;2.80;99.90
13409;DHT22;6775;49.574;11.170;2023-04-03T02:21:13;2.80;99.90
13409;DHT22;6775;49.574;11.170;2023-04-03T02:23:42;2.80;99.90
13409;DHT22;6775;49.574;11.170;2023-04-03T02:26:12;2.90;99.90
13409;DHT22;6775;49.574;11.170;2023-04-03T02:28:40;2.90;99.90
13409;DHT22;6775;49.574;11.170;2023-04-03T02:31:09;3.00;99.90
13409;DHT22;6775;49.574;11.170;2023-04-03T02:33:37;3.00;99.90
13409;DHT22;6775;49.574;11.170;2023-04-03T02:36:06;3.10;99.90
13409;DHT22;6775;49.574;11.170;2023-04-03T02:38:34;3.10;99.90
13409;DHT22;6775;49.574;11.170;2023-04-03T02:41:05;3.20;99.90
13409;DHT22;6775;49.574;11.170;2023-04-03T02:43:33;3.20;99.90
13409;DHT22;6775;49.574;11.170;2023-04-03T02:46:01;3.20;99.90
13409;DHT22;6775;49.574;11.170;2023-04-03T02:48:29;3.30;99.90
13409;DHT22;6775;49.574;11.170;2023-04-03T02:50:57;3.30;99.90
13409;DHT22;6775;49.574;11.170;2023-04-03T02:53:25;3.30;99.90
13409;DHT22;6775;49.574;11.170;2023-04-03T02:55:53;3.40;99.90
13409;DHT22;6775;49.574;11.170;2023-04-03T02:58:22;3.40;99.90
13409;DHT22;6775;49.574;11.170;2023-04-03T03:00:50;3.40;99.90
13409;DHT22;6775;49.574;11.170;2023-04-03T03:03:17;3.40;99.90
13409;DHT22;6775;49.574;11.170;2023-04-03T03:05:45;3.40;99.90
13409;DHT22;6775;49.574;11.170;2023-04-03T03:08:14;3.40;99.90
13409;DHT22;6775;49.574;11.170;2023-04-03T03:10:42;3.40;99.90
13409;DHT22;6775;49.574;11.170;2023-04-03T03:13:10;3.40;99.90
13409;DHT22;6775;49.574;11.170;2023-04-03T03:15:39;3.40;99.90
13409;DHT22;6775;49.574;11.170;2023-04-03T03:18:07;3.40;99.90
13409;DHT22;6775;49.574;11.170;2023-04-03T03:20:34;3.40;99.90
13409;DHT22;6775;49.574;11.170;2023-04-03T03:23:03;3.40;99.90
13409;DHT22;6775;49.574;11.170;2023-04-03T03:25:30;3.40;99.90
13409;DHT22;6775;49.574;11.170;2023-04-03T03:27:58;3.40;99.90
13409;DHT22;6775;49.574;11.170;2023-04-03T03:30:26;3.30;99.90
13409;DHT22;6775;49.574;11.170;2023-04-03T03:32:55;3.30;99.90
13409;DHT22;6775;49.574;11.170;2023-04-03T03:35:23;3.30;99.90
13409;DHT22;6775;49.574;11.170;2023-04-03T03:37:51;3.30;99.90
13409;DHT22;6775;49.574;11.170;2023-04-03T03:40:19;3.30;99.90
13409;DHT22;6775;49.574;11.170;2023-04-03T03:42:46;3.30;99.90
13409;DHT22;6775;49.574;11.170;2023-04-03T03:45:14;3.30;99.90
13409;DHT22;6775;49.574;11.170;2023-04-03T03:47:42;3.30;99.90
13409;DHT22;6775;49.574;11.170;2023-04-03T03:50:11;3.30;99.90
13409;DHT22;6775;49.574;11.170;2023-04-03T03:52:39;3.30;99.90
13409;DHT22;6775;49.574;11.170;2023-04-03T03:55:07;3.20;99.90
13409;DHT22;6775;49.574;11.170;2023-04-03T03:57:35;3.20;99.90
13409;DHT22;6775;49.574;11.170;2023-04-03T04:00:04;3.10;99.90
13409;DHT22;6775;49.574;11.170;2023-04-03T04:02:33;3.10;99.90
13409;DHT22;6775;49.574;11.170;2023-04-03T04:05:01;3.10;99.90
13409;DHT22;6775;49.574;11.170;2023-04-03T04:07:30;3.00;99.90
13409;DHT22;6775;49.574;11.170;2023-04-03T04:09:58;3.10;99.90
13409;DHT22;6775;49.574;11.170;2023-04-03T04:12:27;3.00;99.90
13409;DHT22;6775;49.574;11.170;2023-04-03T04:14:54;3.00;99.90
13409;DHT22;6775;49.574;11.170;2023-04-03T04:17:22;3.00;99.90
13409;DHT22;6775;49.574;11.170;2023-04-03T04:19:50;3.00;99.90
13409;DHT22;6775;49.574;11.170;2023-04-03T04:22:18;3.00;99.90
13409;DHT22;6775;49.574;11.170;2023-04-03T04:24:47;3.00;99.90
13409;DHT22;6775;49.574;11.170;2023-04-03T04:27:15;2.90;99.90
13409;DHT22;6775;49.574;11.170;2023-04-03T04:29:43;2.90;99.90
13409;DHT22;6775;49.574;11.170;2023-04-03T04:32:11;2.90;99.90
13409;DHT22;6775;49.574;11.170;2023-04-03T04:34:38;2.80;99.90
13409;DHT22;6775;49.574;11.170;2023-04-03T04:37:06;2.80;99.90
13409;DHT22;6775;49.574;11.170;2023-04-03T04:39:34;2.70;99.90
13409;DHT22;6775;49.574;11.170;2023-04-03T04:42:03;2.60;99.90
13409;DHT22;6775;49.574;11.170;2023-04-03T04:44:33;2.60;99.90
13409;DHT22;6775;49.574;11.170;2023-04-03T04:47:01;2.50;99.90
13409;DHT22;6775;49.574;11.170;2023-04-03T04:49:29;2.50;99.90
13409;DHT22;6775;49.574;11.170;2023-04-03T04:51:56;2.40;99.90
13409;DHT22;6775;49.574;11.170;2023-04-03T04:54:24;2.40;99.90
13409;DHT22;6775;49.574;11.170;2023-04-03T04:56:52;2.30;99.90
13409;DHT22;6775;49.574;11.170;2023-04-03T04:59:21;2.30;99.90
13409;DHT22;6775;49.574;11.170;2023-04-03T05:01:49;2.30;99.90
13409;DHT22;6775;49.574;11.170;2023-04-03T05:04:17;2.30;99.90
13409;DHT22;6775;49.574;11.170;2023-04-03T05:06:45;2.20;99.90
13409;DHT22;6775;49.574;11.170;2023-04-03T05:09:13;2.20;99.90
13409;DHT22;6775;49.574;11.170;2023-04-03T05:11:41;2.20;99.90
13409;DHT22;6775;49.574;11.170;2023-04-03T05:14:09;2.30;99.90
13409;DHT22;6775;49.574;11.170;2023-04-03T05:16:38;2.30;99.90
13409;DHT22;6775;49.574;11.170;2023-04-03T05:19:06;2.30;99.90
13409;DHT22;6775;49.574;11.170;2023-04-03T05:21:34;2.40;99.90
13409;DHT22;6775;49.574;11.170;2023-04-03T05:24:02;2.50;99.90
13409;DHT22;6775;49.574;11.170;2023-04-03T05:26:30;2.60;99.90
13409;DHT22;6775;49.574;11.170;2023-04-03T05:28:58;2.60;99.90
13409;DHT22;6775;49.574;11.170;2023-04-03T05:31:26;2.70;99.90
13409;DHT22;6775;49.574;11.170;2023-04-03T05:33:57;2.70;99.90
13409;DHT22;6775;49.574;11.170;2023-04-03T05:36:25;2.70;99.90
13409;DHT22;6775;49.574;11.170;2023-04-03T05:38:53;2.70;99.90
13409;DHT22;6775;49.574;11.170;2023-04-03T05:41:22;2.80;99.90
13409;DHT22;6775;49.574;11.170;2023-04-03T05:43:50;2.80;99.90
13409;DHT22;6775;49.574;11.170;2023-04-03T05:46:19;2.80;99.90
13409;DHT22;6775;49.574;11.170;2023-04-03T05:48:48;2.90;99.90
13409;DHT22;6775;49.574;11.170;2023-04-03T05:51:20;2.90;99.90
13409;DHT22;6775;49.574;11.170;2023-04-03T05:53:52;3.00;99.90
13409;DHT22;6775;49.574;11.170;2023-04-03T05:56:22;3.00;99.90
13409;DHT22;6775;49.574;11.170;2023-04-03T05:58:50;3.10;99.90
13409;DHT22;6775;49.574;11.170;2023-04-03T06:01:18;3.20;99.90
13409;DHT22;6775;49.574;11.170;2023-04-03T06:03:46;3.20;99.90
13409;DHT22;6775;49.574;11.170;2023-04-03T06:06:14;3.30;99.90
13409;DHT22;6775;49.574;11.170;2023-04-03T06:08:43;3.30;99.90
13409;DHT22;6775;49.574;11.170;2023-04-03T06:11:12;3.40;99.90
13409;DHT22;6775;49.574;11.170;2023-04-03T06:13:40;3.30;99.90
13409;DHT22;6775;49.574;11.170;2023-04-03T06:16:08;3.30;99.90
13409;DHT22;6775;49.574;11.170;2023-04-03T06:18:37;3.30;99.90
13409;DHT22;6775;49.574;11.170;2023-04-03T06:21:05;3.20;99.90
13409;DHT22;6775;49.574;11.170;2023-04-03T06:23:34;3.30;99.90
13409;DHT22;6775;49.574;11.170;2023-04-03T06:26:03;3.40;99.90
13409;DHT22;6775;49.574;11.170;2023-04-03T06:28:32;3.40;99.90
13409;DHT22;6775;49.574;11.170;2023-04-03T06:30:59;3.50;99.90
13409;DHT22;6775;49.574;11.170;2023-04-03T06:33:27;3.50;99.90
13409;DHT22;6775;49.574;11.170;2023-04-03T06:35:57;3.50;99.90
13409;DHT22;6775;49.574;11.170;2023-04-03T06:38:24;3.50;99.90
13409;DHT22;6775;49.574;11.170;2023-04-03T06:40:52;3.50;99.90
13409;DHT22;6775;49.574;11.170;2023-04-03T06:43:21;3.40;99.90
13409;DHT22;6775;49.574;11.170;2023-04-03T06:45:50;3.50;99.90
13409;DHT22;6775;49.574;11.170;2023-04-03T06:48:18;3.40;99.90
13409;DHT22;6775;49.574;11.170;2023-04-03T06:50:46;3.50;99.90
13409;DHT22;6775;49.574;11.170;2023-04-03T06:53:14;3.60;99.90
13409;DHT22;6775;49.574;11.170;2023-04-03T06:55:42;3.70;99.90
13409;DHT22;6775;49.574;11.170;2023-04-03T06:58:10;3.80;99.90
13409;DHT22;6775;49.574;11.170;2023-04-03T07:00:39;3.90;99.90
13409;DHT22;6775;49.574;11.170;2023-04-03T07:03:07;3.90;99.90
13409;DHT22;6775;49.574;11.170;2023-04-03T07:05:35;4.00;99.90
13409;DHT22;6775;49.574;11.170;2023-04-03T07:08:03;4.00;99.90
13409;DHT22;6775;49.574;11.170;2023-04-03T07:10:32;4.10;99.90
13409;DHT22;6775;49.574;11.170;2023-04-03T07:12:59;4.20;99.90
13409;DHT22;6775;49.574;11.170;2023-04-03T07:15:28;4.40;99.90
13409;DHT22;6775;49.574;11.170;2023-04-03T07:17:57;4.50;99.90
13409;DHT22;6775;49.574;11.170;2023-04-03T07:20:25;4.60;99.90
13409;DHT22;6775;49.574;11.170;2023-04-03T07:22:53;4.70;99.90
13409;DHT22;6775;49.574;11.170;2023-04-03T07:25:21;4.90;99.90
13409;DHT22;6775;49.574;11.170;2023-04-03T07:27:48;5.00;99.90
13409;DHT22;6775;49.574;11.170;2023-04-03T07:30:16;5.20;99.90
13409;DHT22;6775;49.574;11.170;2023-04-03T07:32:45;5.30;99.90
13409;DHT22;6775;49.574;11.170;2023-04-03T07:35:15;5.30;99.90
13409;DHT22;6775;49.574;11.170;2023-04-03T07:37:44;5.30;99.90
13409;DHT22;6775;49.574;11.170;2023-04-03T07:40:12;5.30;99.90
13409;DHT22;6775;49.574;11.170;2023-04-03T07:42:41;5.40;99.90
13409;DHT22;6775;49.574;11.170;2023-04-03T07:45:09;5.50;99.90
13409;DHT22;6775;49.574;11.170;2023-04-03T07:47:38;5.50;99.90
13409;DHT22;6775;49.574;11.170;2023-04-03T07:50:07;5.50;99.90
13409;DHT22;6775;49.574;11.170;2023-04-03T07:52:36;5.50;99.90
13409;DHT22;6775;49.574;11.170;2023-04-03T07:55:05;5.60;99.90
13409;DHT22;6775;49.574;11.170;2023-04-03T07:57:32;5.60;99.90
13409;DHT22;6775;49.574;11.170;2023-04-03T08:00:00;5.70;99.90
13409;DHT22;6775;49.574;11.170;2023-04-03T08:02:29;5.80;99.90
13409;DHT22;6775;49.574;11.170;2023-04-03T08:04:58;5.90;99.90
13409;DHT22;6775;49.574;11.170;2023-04-03T08:07:26;6.00;99.90
13409;DHT22;6775;49.574;11.170;2023-04-03T08:09:55;6.20;99.90
13409;DHT22;6775;49.574;11.170;2023-04-03T08:12:23;6.40;99.90
13409;DHT22;6775;49.574;11.170;2023-04-03T08:14:51;6.50;99.90
13409;DHT22;6775;49.574;11.170;2023-04-03T08:17:19;6.60;99.90
13409;DHT22;6775;49.574;11.170;2023-04-03T08:19:47;6.90;99.90
13409;DHT22;6775;49.574;11.170;2023-04-03T08:22:15;7.10;99.90
13409;DHT22;6775;49.574;11.170;2023-04-03T08:24:42;7.40;99.90
13409;DHT22;6775;49.574;11.170;2023-04-03T08:27:26;7.60;99.90
13409;DHT22;6775;49.574;11.170;2023-04-03T08:29:54;7.80;99.90
13409;DHT22;6775;49.574;11.170;2023-04-03T08:32:22;7.80;99.90
13409;DHT22;6775;49.574;11.170;2023-04-03T08:34:50;7.60;99.90
13409;DHT22;6775;49.574;11.170;2023-04-03T08:37:17;7.10;99.90
13409;DHT22;6775;49.574;11.170;2023-04-03T08:39:45;6.70;99.90
13409;DHT22;6775;49.574;11.170;2023-04-03T08:42:18;6.40;99.90
13409;DHT22;6775;49.574;11.170;2023-04-03T08:44:54;6.10;99.90
13409;DHT22;6775;49.574;11.170;2023-04-03T08:47:30;6.20;99.90
13409;DHT22;6775;49.574;11.170;2023-04-03T08:50:06;6.50;99.90
13409;DHT22;6775;49.574;11.170;2023-04-03T08:52:39;6.90;99.90
13409;DHT22;6775;49.574;11.170;2023-04-03T08:55:18;6.90;99.90
13409;DHT22;6775;49.574;11.170;2023-04-03T08:57:49;6.90;99.90
13409;DHT22;6775;49.574;11.170;2023-04-03T09:00:22;6.90;99.90
13409;DHT22;6775;49.574;11.170;2023-04-03T09:02:52;7.10;99.90
13409;DHT22;6775;49.574;11.170;2023-04-03T09:05:29;7.50;99.90
13409;DHT22;6775;49.574;11.170;2023-04-03T09:08:01;7.60;99.90
13409;DHT22;6775;49.574;11.170;2023-04-03T09:10:33;7.90;99.90
13409;DHT22;6775;49.574;11.170;2023-04-03T09:13:08;8.10;99.90
13409;DHT22;6775;49.574;11.170;2023-04-03T09:15:40;8.20;98.90
13409;DHT22;6775;49.574;11.170;2023-04-03T09:18:15;8.10;98.80
13409;DHT22;6775;49.574;11.170;2023-04-03T09:20:48;7.90;96.40
13409;DHT22;6775;49.574;11.170;2023-04-03T09:23:25;7.60;96.60
13409;DHT22;6775;49.574;11.170;2023-04-03T09:25:58;7.30;98.00
13409;DHT22;6775;49.574;11.170;2023-04-03T09:28:31;7.10;97.30
13409;DHT22;6775;49.574;11.170;2023-04-03T09:31:22;7.40;99.20
13409;DHT22;6775;49.574;11.170;2023-04-03T09:33:53;7.70;99.70
13409;DHT22;6775;49.574;11.170;2023-04-03T09:36:40;8.10;98.80
13409;DHT22;6775;49.574;11.170;2023-04-03T09:39:11;8.00;94.80
13409;DHT22;6775;49.574;11.170;2023-04-03T09:41:41;7.90;96.30
13409;DHT22;6775;49.574;11.170;2023-04-03T09:44:21;7.80;93.70
13409;DHT22;6775;49.574;11.170;2023-04-03T09:46:51;7.90;95.60
13409;DHT22;6775;49.574;11.170;2023-04-03T09:49:19;8.20;96.50
13409;DHT22;6775;49.574;11.170;2023-04-03T09:51:48;8.50;96.70
13409;DHT22;6775;49.574;11.170;2023-04-03T09:54:32;8.80;95.70
13409;DHT22;6775;49.574;11.170;2023-04-03T09:57:07;9.10;95.70
13409;DHT22;6775;49.574;11.170;2023-04-03T09:59:37;9.00;94.40
13409;DHT22;6775;49.574;11.170;2023-04-03T10:02:22;8.70;92.90
13409;DHT22;6775;49.574;11.170;2023-04-03T10:04:53;8.50;94.00
13409;DHT22;6775;49.574;11.170;2023-04-03T10:07:37;8.20;94.20
13409;DHT22;6775;49.574;11.170;2023-04-03T10:10:20;8.10;94.50
13409;DHT22;6775;49.574;11.170;2023-04-03T10:13:04;8.10;94.70
13409;DHT22;6775;49.574;11.170;2023-04-03T10:15:36;8.20;93.20
13409;DHT22;6775;49.574;11.170;2023-04-03T10:18:19;8.20;92.90
13409;DHT22;6775;49.574;11.170;2023-04-03T10:20:52;8.30;93.00
13409;DHT22;6775;49.574;11.170;2023-04-03T10:23:26;8.30;93.50
13409;DHT22;6775;49.574;11.170;2023-04-03T10:26:05;8.10;92.80
13409;DHT22;6775;49.574;11.170;2023-04-03T10:28:46;8.00;92.70
13409;DHT22;6775;49.574;11.170;2023-04-03T10:31:21;8.00;91.10
13409;DHT22;6775;49.574;11.170;2023-04-03T10:34:00;8.30;92.30
13409;DHT22;6775;49.574;11.170;2023-04-03T10:36:36;8.70;92.90
13409;DHT22;6775;49.574;11.170;2023-04-03T10:39:15;9.00;93.40
13409;DHT22;6775;49.574;11.170;2023-04-03T10:41:56;9.30;90.30
13409;DHT22;6775;49.574;11.170;2023-04-03T10:44:56;9.20;88.00
13409;DHT22;6775;49.574;11.170;2023-04-03T10:47:32;8.70;89.80
13409;DHT22;6775;49.574;11.170;2023-04-03T10:50:23;8.40;90.90
13409;DHT22;6775;49.574;11.170;2023-04-03T10:52:59;8.60;91.40
13409;DHT22;6775;49.574;11.170;2023-04-03T10:55:34;9.10;91.90
13409;DHT22;6775;49.574;11.170;2023-04-03T10:58:03;9.60;91.40
13409;DHT22;6775;49.574;11.170;2023-04-03T11:00:36;9.60;87.70
13409;DHT22;6775;49.574;11.170;2023-04-03T11:03:11;9.30;86.10
13409;DHT22;6775;49.574;11.170;2023-04-03T11:05:44;8.90;86.00
13409;DHT22;6775;49.574;11.170;2023-04-03T11:08:21;8.90;90.00
13409;DHT22;6775;49.574;11.170;2023-04-03T11:10:54;8.80;88.80
13409;DHT22;6775;49.574;11.170;2023-04-03T11:13:28;8.70;89.80
13409;DHT22;6775;49.574;11.170;2023-04-03T11:15:58;8.50;88.00
13409;DHT22;6775;49.574;11.170;2023-04-03T11:18:28;8.60;90.50
13409;DHT22;6775;49.574;11.170;2023-04-03T11:21:06;8.80;90.30
13409;DHT22;6775;49.574;11.170;2023-04-03T11:23:37;9.20;87.60
13409;DHT22;6775;49.574;11.170;2023-04-03T11:26:18;9.60;88.60
13409;DHT22;6775;49.574;11.170;2023-04-03T11:28:52;9.60;85.80
13409;DHT22;6775;49.574;11.170;2023-04-03T11:31:29;9.80;84.70
13409;DHT22;6775;49.574;11.170;2023-04-03T11:34:08;10.10;87.10
13409;DHT22;6775;49.574;11.170;2023-04-03T11:36:43;10.10;83.90
13409;DHT22;6775;49.574;11.170;2023-04-03T11:39:20;10.00;81.80
13409;DHT22;6775;49.574;11.170;2023-04-03T11:41:50;10.10;83.60
13409;DHT22;6775;49.574;11.170;2023-04-03T11:44:35;10.30;83.50
13409;DHT22;6775;49.574;11.170;2023-04-03T11:47:05;10.70;84.20
13409;DHT22;6775;49.574;11.170;2023-04-03T11:49:52;10.90;82.50
13409;DHT22;6775;49.574;11.170;2023-04-03T11:55:57;10.90;80.70
13409;DHT22;6775;49.574;11.170;2023-04-03T11:58:28;10.70;77.60
13409;DHT22;6775;49.574;11.170;2023-04-03T12:01:04;10.40;79.00
13409;DHT22;6775;49.574;11.170;2023-04-03T12:09:56;10.40;80.30
13409;DHT22;6775;49.574;11.170;2023-04-03T12:12:30;10.30;80.00
13409;DHT22;6775;49.574;11.170;2023-04-03T12:21:18;10.40;81.90
13409;DHT22;6775;49.574;11.170;2023-04-03T12:24:00;10.50;82.30
13409;DHT22;6775;49.574;11.170;2023-04-03T12:26:32;10.40;78.60
13409;DHT22;6775;49.574;11.170;2023-04-03T12:29:20;10.40;80.70
13409;DHT22;6775;49.574;11.170;2023-04-03T12:31:58;10.50;80.10
13409;DHT22;6775;49.574;11.170;2023-04-03T12:34:50;10.60;79.10
13409;DHT22;6775;49.574;11.170;2023-04-03T12:37:37;10.80;80.50
13409;DHT22;6775;49.574;11.170;2023-04-03T12:40:16;10.90;78.20
13409;DHT22;6775;49.574;11.170;2023-04-03T12:45:54;10.60;78.20
13409;DHT22;6775;49.574;11.170;2023-04-03T12:48:26;10.40;76.80
13409;DHT22;6775;49.574;11.170;2023-04-03T12:50:56;10.20;77.20
13409;DHT22;6775;49.574;11.170;2023-04-03T12:53:26;10.10;80.20
13409;DHT22;6775;49.574;11.170;2023-04-03T12:56:18;10.30;79.60
13409;DHT22;6775;49.574;11.170;2023-04-03T12:58:45;10.40;79.30
13409;DHT22;6775;49.574;11.170;2023-04-03T13:01:17;10.60;80.30
13409;DHT22;6775;49.574;11.170;2023-04-03T13:03:48;10.70;81.10
13409;DHT22;6775;49.574;11.170;2023-04-03T13:06:18;10.90;80.00
13409;DHT22;6775;49.574;11.170;2023-04-03T13:08:51;11.00;77.50
13409;DHT22;6775;49.574;11.170;2023-04-03T13:11:20;11.00;77.40
13409;DHT22;6775;49.574;11.170;2023-04-03T13:13:57;11.00;79.90
13409;DHT22;6775;49.574;11.170;2023-04-03T13:16:27;10.80;75.70
13409;DHT22;6775;49.574;11.170;2023-04-03T13:18:55;10.50;77.10
13409;DHT22;6775;49.574;11.170;2023-04-03T13:21:25;10.50;78.00
13409;DHT22;6775;49.574;11.170;2023-04-03T13:23:56;10.60;76.40
13409;DHT22;6775;49.574;11.170;2023-04-03T13:26:37;10.70;75.30
13409;DHT22;6775;49.574;11.170;2023-04-03T13:29:14;10.70;75.30
13409;DHT22;6775;49.574;11.170;2023-04-03T13:31:56;10.50;76.60
13409;DHT22;6775;49.574;11.170;2023-04-03T13:34:26;10.50;77.90
13409;DHT22;6775;49.574;11.170;2023-04-03T13:36:56;10.50;77.20
13409;DHT22;6775;49.574;11.170;2023-04-03T13:39:26;10.60;77.80
13409;DHT22;6775;49.574;11.170;2023-04-03T13:41:55;10.70;76.00
13409;DHT22;6775;49.574;11.170;2023-04-03T13:44:29;10.80;74.30
13409;DHT22;6775;49.574;11.170;2023-04-03T13:47:00;10.70;73.10
13409;DHT22;6775;49.574;11.170;2023-04-03T13:49:31;10.50;75.70
13409;DHT22;6775;49.574;11.170;2023-04-03T13:52:01;10.50;75.30
13409;DHT22;6775;49.574;11.170;2023-04-03T13:54:36;10.50;75.30
13409;DHT22;6775;49.574;11.170;2023-04-03T13:57:12;10.50;78.20
13409;DHT22;6775;49.574;11.170;2023-04-03T13:59:40;10.50;73.50
13409;DHT22;6775;49.574;11.170;2023-04-03T14:02:19;10.30;76.00
13409;DHT22;6775;49.574;11.170;2023-04-03T14:04:52;10.20;75.90
13409;DHT22;6775;49.574;11.170;2023-04-03T14:07:23;10.20;76.30
13409;DHT22;6775;49.574;11.170;2023-04-03T14:09:52;10.30;76.80
13409;DHT22;6775;49.574;11.170;2023-04-03T14:12:25;10.40;76.00
13409;DHT22;6775;49.574;11.170;2023-04-03T14:14:58;10.40;75.10
13409;DHT22;6775;49.574;11.170;2023-04-03T14:17:28;10.30;76.50
13409;DHT22;6775;49.574;11.170;2023-04-03T14:19:58;10.30;77.70
13409;DHT22;6775;49.574;11.170;2023-04-03T14:22:30;10.10;75.00
13409;DHT22;6775;49.574;11.170;2023-04-03T14:24:58;9.80;75.50
13409;DHT22;6775;49.574;11.170;2023-04-03T14:27:29;9.70;76.80
13409;DHT22;6775;49.574;11.170;2023-04-03T14:29:58;9.70;76.00
13409;DHT22;6775;49.574;11.170;2023-04-03T14:32:28;9.60;74.80
13409;DHT22;6775;49.574;11.170;2023-04-03T14:34:56;9.40;75.70
13409;DHT22;6775;49.574;11.170;2023-04-03T14:37:27;9.40;76.50
13409;DHT22;6775;49.574;11.170;2023-04-03T14:39:57;9.40;76.10
13409;DHT22;6775;49.574;11.170;2023-04-03T14:42:27;9.40;74.80
13409;DHT22;6775;49.574;11.170;2023-04-03T14:44:56;9.50;76.40
13409;DHT22;6775;49.574;11.170;2023-04-03T14:47:26;9.60;75.70
13409;DHT22;6775;49.574;11.170;2023-04-03T14:50:00;9.40;76.20
13409;DHT22;6775;49.574;11.170;2023-04-03T14:52:30;9.30;76.90
13409;DHT22;6775;49.574;11.170;2023-04-03T14:54:59;9.20;77.10
13409;DHT22;6775;49.574;11.170;2023-04-03T14:57:29;8.90;76.20
13409;DHT22;6775;49.574;11.170;2023-04-03T14:59:57;8.90;77.30
13409;DHT22;6775;49.574;11.170;2023-04-03T15:02:28;8.70;75.00
13409;DHT22;6775;49.574;11.170;2023-04-03T15:04:57;8.60;75.70
13409;DHT22;6775;49.574;11.170;2023-04-03T15:07:28;8.70;76.90
13409;DHT22;6775;49.574;11.170;2023-04-03T15:09:57;8.70;78.50
13409;DHT22;6775;49.574;11.170;2023-04-03T15:12:25;8.80;78.20
13409;DHT22;6775;49.574;11.170;2023-04-03T15:14:53;8.80;76.70
13409;DHT22;6775;49.574;11.170;2023-04-03T15:17:29;8.60;75.20
13409;DHT22;6775;49.574;11.170;2023-04-03T15:19:58;8.40;76.00
13409;DHT22;6775;49.574;11.170;2023-04-03T15:22:27;8.20;76.60
13409;DHT22;6775;49.574;11.170;2023-04-03T15:24:55;8.10;77.00
13409;DHT22;6775;49.574;11.170;2023-04-03T15:27:23;7.90;78.00
13409;DHT22;6775;49.574;11.170;2023-04-03T15:29:50;7.80;78.50
13409;DHT22;6775;49.574;11.170;2023-04-03T15:32:18;7.70;79.00
13409;DHT22;6775;49.574;11.170;2023-04-03T15:34:46;7.60;78.80
13409;DHT22;6775;49.574;11.170;2023-04-03T15:37:14;7.50;79.60
13409;DHT22;6775;49.574;11.170;2023-04-03T15:39:43;7.50;79.40
13409;DHT22;6775;49.574;11.170;2023-04-03T15:42:11;7.50;78.90
13409;DHT22;6775;49.574;11.170;2023-04-03T15:44:39;7.50;78.70
13409;DHT22;6775;49.574;11.170;2023-04-03T15:47:07;7.50;79.30
13409;DHT22;6775;49.574;11.170;2023-04-03T15:49:35;7.50;78.80
13409;DHT22;6775;49.574;11.170;2023-04-03T15:52:03;7.50;79.40
13409;DHT22;6775;49.574;11.170;2023-04-03T15:54:32;7.40;79.00
13409;DHT22;6775;49.574;11.170;2023-04-03T15:57:01;7.30;78.20
13409;DHT22;6775;49.574;11.170;2023-04-03T15:59:29;7.30;79.70
13409;DHT22;6775;49.574;11.170;2023-04-03T16:01:59;7.20;81.00
13409;DHT22;6775;49.574;11.170;2023-04-03T16:04:27;7.20;81.00
13409;DHT22;6775;49.574;11.170;2023-04-03T16:06:55;7.10;82.20
13409;DHT22;6775;49.574;11.170;2023-04-03T16:09:24;7.10;82.00
13409;DHT22;6775;49.574;11.170;2023-04-03T16:11:51;7.00;80.50
13409;DHT22;6775;49.574;11.170;2023-04-03T16:14:21;6.90;80.10
13409;DHT22;6775;49.574;11.170;2023-04-03T16:16:48;6.90;81.30
13409;DHT22;6775;49.574;11.170;2023-04-03T16:19:17;6.90;82.10
13409;DHT22;6775;49.574;11.170;2023-04-03T16:21:45;6.80;81.60
13409;DHT22;6775;49.574;11.170;2023-04-03T16:24:13;6.80;81.00
13409;DHT22;6775;49.574;11.170;2023-04-03T16:26:44;6.70;80.50
13409;DHT22;6775;49.574;11.170;2023-04-03T16:29:12;6.70;81.80